sensor_id;sensor_type;location;lat;lon;timestamp;P1;durP1;ratioP1;P2;durP2;ratioP2
12635;SDS011;6383;50.830;7.210;2022-10-03T00:01:12;8.13;;;3.15;;
12635;SDS011;6383;50.830;7.210;2022-10-03T00:03:57;12.30;;;3.67;;
12635;SDS011;6383;50.830;7.210;2022-10-03T00:06:38;13.07;;;4.07;;
12635;SDS011;6383;50.830;7.210;2022-10-03T00:09:20;11.95;;;3.65;;
12635;SDS011;6383;50.830;7.210;2022-10-03T00:12:03;16.95;;;3.75;;
12635;SDS011;6383;50.830;7.210;2022-10-03T00:14:43;11.40;;;3.70;;
12635;SDS011;6383;50.830;7.210;2022-10-03T00:17:22;7.40;;;3.33;;
12635;SDS011;6383;50.830;7.210;2022-10-03T00:20:00;7.38;;;3.25;;
12635;SDS011;6383;50.830;7.210;2022-10-03T00:22:36;9.82;;;3.92;;
12635;SDS011;6383;50.830;7.210;2022-10-03T00:28:08;16.90;;;4.90;;
12635;SDS011;6383;50.830;7.210;2022-10-03T00:33:58;14.45;;;3.28;;
12635;SDS011;6383;50.830;7.210;2022-10-03T00:37:10;13.55;;;3.97;;
12635;SDS011;6383;50.830;7.210;2022-10-03T00:43:05;10.32;;;3.13;;
12635;SDS011;6383;50.830;7.210;2022-10-03T01:03:36;12.13;;;2.55;;
12635;SDS011;6383;50.830;7.210;2022-10-03T01:06:19;11.70;;;3.40;;
12635;SDS011;6383;50.830;7.210;2022-10-03T01:09:24;11.02;;;2.90;;
12635;SDS011;6383;50.830;7.210;2022-10-03T01:21:06;8.60;;;3.70;;
12635;SDS011;6383;50.830;7.210;2022-10-03T01:23:51;5.10;;;2.65;;
12635;SDS011;6383;50.830;7.210;2022-10-03T01:26:53;10.60;;;3.30;;
12635;SDS011;6383;50.830;7.210;2022-10-03T01:29:27;15.88;;;3.10;;
12635;SDS011;6383;50.830;7.210;2022-10-03T01:32:27;14.35;;;3.65;;
12635;SDS011;6383;50.830;7.210;2022-10-03T01:35:08;8.50;;;2.63;;
12635;SDS011;6383;50.830;7.210;2022-10-03T01:37:52;10.90;;;3.63;;
12635;SDS011;6383;50.830;7.210;2022-10-03T01:40:30;14.90;;;3.25;;
12635;SDS011;6383;50.830;7.210;2022-10-03T01:43:13;11.82;;;3.55;;
12635;SDS011;6383;50.830;7.210;2022-10-03T01:45:57;15.15;;;3.00;;
12635;SDS011;6383;50.830;7.210;2022-10-03T01:48:44;9.90;;;3.33;;
12635;SDS011;6383;50.830;7.210;2022-10-03T01:51:26;5.45;;;2.97;;
12635;SDS011;6383;50.830;7.210;2022-10-03T01:54:35;5.80;;;2.60;;
12635;SDS011;6383;50.830;7.210;2022-10-03T01:57:16;5.40;;;2.92;;
12635;SDS011;6383;50.830;7.210;2022-10-03T01:59:53;16.50;;;3.38;;
12635;SDS011;6383;50.830;7.210;2022-10-03T02:02:35;12.20;;;3.45;;
12635;SDS011;6383;50.830;7.210;2022-10-03T02:05:16;10.82;;;3.08;;
12635;SDS011;6383;50.830;7.210;2022-10-03T02:07:54;8.93;;;2.92;;
12635;SDS011;6383;50.830;7.210;2022-10-03T02:10:31;11.02;;;3.65;;
12635;SDS011;6383;50.830;7.210;2022-10-03T02:13:08;12.80;;;3.60;;
12635;SDS011;6383;50.830;7.210;2022-10-03T02:15:54;11.05;;;3.50;;
12635;SDS011;6383;50.830;7.210;2022-10-03T02:18:33;7.43;;;3.42;;
12635;SDS011;6383;50.830;7.210;2022-10-03T02:21:09;6.22;;;3.08;;
12635;SDS011;6383;50.830;7.210;2022-10-03T02:24:10;11.25;;;3.25;;
12635;SDS011;6383;50.830;7.210;2022-10-03T02:26:55;10.10;;;3.10;;
12635;SDS011;6383;50.830;7.210;2022-10-03T02:30:01;11.68;;;3.50;;
12635;SDS011;6383;50.830;7.210;2022-10-03T02:36:13;9.02;;;4.32;;
12635;SDS011;6383;50.830;7.210;2022-10-03T02:42:22;6.38;;;3.15;;
12635;SDS011;6383;50.830;7.210;2022-10-03T02:45:25;14.07;;;4.07;;
12635;SDS011;6383;50.830;7.210;2022-10-03T02:51:30;9.35;;;3.40;;
12635;SDS011;6383;50.830;7.210;2022-10-03T03:01:01;9.35;;;3.13;;
12635;SDS011;6383;50.830;7.210;2022-10-03T03:03:56;9.00;;;3.78;;
12635;SDS011;6383;50.830;7.210;2022-10-03T03:16:28;13.38;;;3.72;;
12635;SDS011;6383;50.830;7.210;2022-10-03T03:19:27;7.15;;;3.33;;
12635;SDS011;6383;50.830;7.210;2022-10-03T03:22:23;5.85;;;3.08;;
12635;SDS011;6383;50.830;7.210;2022-10-03T03:28:20;11.10;;;3.45;;
12635;SDS011;6383;50.830;7.210;2022-10-03T03:31:02;14.02;;;3.47;;
12635;SDS011;6383;50.830;7.210;2022-10-03T03:33:57;7.82;;;3.40;;
12635;SDS011;6383;50.830;7.210;2022-10-03T03:36:35;12.38;;;4.65;;
12635;SDS011;6383;50.830;7.210;2022-10-03T03:39:15;10.75;;;3.35;;
12635;SDS011;6383;50.830;7.210;2022-10-03T03:42:01;14.45;;;4.63;;
12635;SDS011;6383;50.830;7.210;2022-10-03T03:44:57;10.00;;;3.67;;
12635;SDS011;6383;50.830;7.210;2022-10-03T03:47:39;8.15;;;3.33;;
12635;SDS011;6383;50.830;7.210;2022-10-03T03:50:35;6.28;;;3.05;;
12635;SDS011;6383;50.830;7.210;2022-10-03T03:53:22;9.23;;;3.65;;
12635;SDS011;6383;50.830;7.210;2022-10-03T03:56:17;5.28;;;3.15;;
12635;SDS011;6383;50.830;7.210;2022-10-03T03:59:04;6.45;;;2.90;;
12635;SDS011;6383;50.830;7.210;2022-10-03T04:01:50;6.72;;;3.55;;
12635;SDS011;6383;50.830;7.210;2022-10-03T04:04:44;14.75;;;3.53;;
12635;SDS011;6383;50.830;7.210;2022-10-03T04:07:36;7.22;;;3.60;;
12635;SDS011;6383;50.830;7.210;2022-10-03T04:10:24;5.00;;;3.28;;
12635;SDS011;6383;50.830;7.210;2022-10-03T04:13:12;10.23;;;3.05;;
12635;SDS011;6383;50.830;7.210;2022-10-03T04:19:38;4.50;;;2.70;;
12635;SDS011;6383;50.830;7.210;2022-10-03T04:22:15;5.22;;;3.08;;
12635;SDS011;6383;50.830;7.210;2022-10-03T04:25:15;13.80;;;3.00;;
12635;SDS011;6383;50.830;7.210;2022-10-03T04:28:06;9.15;;;3.40;;
12635;SDS011;6383;50.830;7.210;2022-10-03T04:31:04;6.13;;;2.55;;
12635;SDS011;6383;50.830;7.210;2022-10-03T04:33:46;12.50;;;2.92;;
12635;SDS011;6383;50.830;7.210;2022-10-03T04:39:15;7.53;;;2.60;;
12635;SDS011;6383;50.830;7.210;2022-10-03T04:41:52;7.18;;;2.60;;
12635;SDS011;6383;50.830;7.210;2022-10-03T04:44:29;5.13;;;2.90;;
12635;SDS011;6383;50.830;7.210;2022-10-03T04:47:08;6.68;;;3.10;;
12635;SDS011;6383;50.830;7.210;2022-10-03T04:49:46;10.55;;;3.63;;
12635;SDS011;6383;50.830;7.210;2022-10-03T04:52:27;10.40;;;3.95;;
12635;SDS011;6383;50.830;7.210;2022-10-03T04:55:06;9.63;;;3.40;;
12635;SDS011;6383;50.830;7.210;2022-10-03T04:57:51;13.65;;;3.42;;
12635;SDS011;6383;50.830;7.210;2022-10-03T05:00:28;8.27;;;3.22;;
12635;SDS011;6383;50.830;7.210;2022-10-03T05:03:05;10.63;;;3.20;;
12635;SDS011;6383;50.830;7.210;2022-10-03T05:05:45;8.35;;;3.90;;
12635;SDS011;6383;50.830;7.210;2022-10-03T05:08:25;6.63;;;3.05;;
12635;SDS011;6383;50.830;7.210;2022-10-03T05:11:03;6.80;;;3.55;;
12635;SDS011;6383;50.830;7.210;2022-10-03T05:13:52;9.23;;;3.03;;
12635;SDS011;6383;50.830;7.210;2022-10-03T05:16:36;11.43;;;3.40;;
12635;SDS011;6383;50.830;7.210;2022-10-03T05:19:29;8.02;;;3.28;;
12635;SDS011;6383;50.830;7.210;2022-10-03T05:22:22;8.18;;;3.20;;
12635;SDS011;6383;50.830;7.210;2022-10-03T05:25:10;7.13;;;2.80;;
12635;SDS011;6383;50.830;7.210;2022-10-03T05:27:50;7.38;;;2.97;;
12635;SDS011;6383;50.830;7.210;2022-10-03T05:30:32;4.13;;;2.63;;
12635;SDS011;6383;50.830;7.210;2022-10-03T05:33:10;6.07;;;3.60;;
12635;SDS011;6383;50.830;7.210;2022-10-03T05:35:53;7.22;;;3.00;;
12635;SDS011;6383;50.830;7.210;2022-10-03T05:41:40;10.43;;;3.53;;
12635;SDS011;6383;50.830;7.210;2022-10-03T05:44:24;7.80;;;3.38;;
12635;SDS011;6383;50.830;7.210;2022-10-03T05:47:08;5.82;;;3.13;;
12635;SDS011;6383;50.830;7.210;2022-10-03T05:50:00;6.70;;;3.45;;
12635;SDS011;6383;50.830;7.210;2022-10-03T05:52:44;7.18;;;3.85;;
12635;SDS011;6383;50.830;7.210;2022-10-03T05:58:31;10.25;;;4.95;;
12635;SDS011;6383;50.830;7.210;2022-10-03T06:04:37;15.80;;;7.90;;
12635;SDS011;6383;50.830;7.210;2022-10-03T06:07:29;19.77;;;7.60;;
12635;SDS011;6383;50.830;7.210;2022-10-03T06:10:16;22.20;;;7.85;;
12635;SDS011;6383;50.830;7.210;2022-10-03T06:13:10;19.85;;;6.47;;
12635;SDS011;6383;50.830;7.210;2022-10-03T06:15:59;14.45;;;8.18;;
12635;SDS011;6383;50.830;7.210;2022-10-03T06:18:41;18.33;;;8.05;;
12635;SDS011;6383;50.830;7.210;2022-10-03T06:27:37;16.67;;;8.55;;
12635;SDS011;6383;50.830;7.210;2022-10-03T06:30:33;12.77;;;9.07;;
12635;SDS011;6383;50.830;7.210;2022-10-03T06:33:46;18.15;;;7.95;;
12635;SDS011;6383;50.830;7.210;2022-10-03T06:36:44;22.35;;;10.48;;
12635;SDS011;6383;50.830;7.210;2022-10-03T06:39:33;19.02;;;8.55;;
12635;SDS011;6383;50.830;7.210;2022-10-03T06:42:50;16.88;;;7.10;;
12635;SDS011;6383;50.830;7.210;2022-10-03T06:51:52;16.92;;;6.75;;
12635;SDS011;6383;50.830;7.210;2022-10-03T06:54:50;18.38;;;5.88;;
12635;SDS011;6383;50.830;7.210;2022-10-03T06:58:00;16.38;;;7.28;;
12635;SDS011;6383;50.830;7.210;2022-10-03T07:00:53;11.68;;;6.82;;
12635;SDS011;6383;50.830;7.210;2022-10-03T07:03:41;15.68;;;8.77;;
12635;SDS011;6383;50.830;7.210;2022-10-03T07:06:50;20.48;;;11.88;;
12635;SDS011;6383;50.830;7.210;2022-10-03T07:09:51;18.17;;;8.82;;
12635;SDS011;6383;50.830;7.210;2022-10-03T07:15:46;11.23;;;6.13;;
12635;SDS011;6383;50.830;7.210;2022-10-03T07:25:02;13.20;;;7.05;;
12635;SDS011;6383;50.830;7.210;2022-10-03T07:28:22;23.90;;;12.65;;
12635;SDS011;6383;50.830;7.210;2022-10-03T07:31:18;19.30;;;9.13;;
12635;SDS011;6383;50.830;7.210;2022-10-03T07:37:25;19.10;;;9.40;;
12635;SDS011;6383;50.830;7.210;2022-10-03T07:40:35;15.65;;;8.63;;
12635;SDS011;6383;50.830;7.210;2022-10-03T07:49:37;14.90;;;6.32;;
12635;SDS011;6383;50.830;7.210;2022-10-03T07:52:44;11.60;;;6.63;;
12635;SDS011;6383;50.830;7.210;2022-10-03T07:55:26;12.98;;;7.18;;
12635;SDS011;6383;50.830;7.210;2022-10-03T07:58:15;13.27;;;6.25;;
12635;SDS011;6383;50.830;7.210;2022-10-03T08:07:02;15.65;;;7.40;;
12635;SDS011;6383;50.830;7.210;2022-10-03T08:09:57;12.13;;;6.63;;
12635;SDS011;6383;50.830;7.210;2022-10-03T08:12:51;15.93;;;8.13;;
12635;SDS011;6383;50.830;7.210;2022-10-03T08:15:49;13.93;;;6.38;;
12635;SDS011;6383;50.830;7.210;2022-10-03T08:21:35;14.82;;;7.50;;
12635;SDS011;6383;50.830;7.210;2022-10-03T08:24:24;16.85;;;6.45;;
12635;SDS011;6383;50.830;7.210;2022-10-03T08:30:14;12.48;;;8.07;;
12635;SDS011;6383;50.830;7.210;2022-10-03T08:38:49;26.00;;;8.30;;
12635;SDS011;6383;50.830;7.210;2022-10-03T08:41:36;24.13;;;9.43;;
12635;SDS011;6383;50.830;7.210;2022-10-03T08:44:50;22.38;;;8.55;;
12635;SDS011;6383;50.830;7.210;2022-10-03T08:47:57;17.05;;;8.18;;
12635;SDS011;6383;50.830;7.210;2022-10-03T08:50:54;21.00;;;8.70;;
12635;SDS011;6383;50.830;7.210;2022-10-03T08:53:45;24.45;;;8.35;;
12635;SDS011;6383;50.830;7.210;2022-10-03T08:56:23;16.25;;;7.80;;
12635;SDS011;6383;50.830;7.210;2022-10-03T08:59:22;20.60;;;7.57;;
12635;SDS011;6383;50.830;7.210;2022-10-03T09:02:27;18.90;;;8.25;;
12635;SDS011;6383;50.830;7.210;2022-10-03T09:05:33;20.77;;;8.70;;
12635;SDS011;6383;50.830;7.210;2022-10-03T09:08:32;23.23;;;8.15;;
12635;SDS011;6383;50.830;7.210;2022-10-03T09:11:30;18.85;;;8.20;;
12635;SDS011;6383;50.830;7.210;2022-10-03T09:17:09;53.50;;;15.02;;
12635;SDS011;6383;50.830;7.210;2022-10-03T09:20:05;18.10;;;8.02;;
12635;SDS011;6383;50.830;7.210;2022-10-03T09:22:55;23.33;;;6.95;;
12635;SDS011;6383;50.830;7.210;2022-10-03T09:25:41;19.35;;;7.70;;
12635;SDS011;6383;50.830;7.210;2022-10-03T09:32:15;21.98;;;7.55;;
12635;SDS011;6383;50.830;7.210;2022-10-03T09:35:05;15.82;;;8.00;;
12635;SDS011;6383;50.830;7.210;2022-10-03T09:38:05;21.75;;;6.10;;
12635;SDS011;6383;50.830;7.210;2022-10-03T09:41:09;22.38;;;8.32;;
12635;SDS011;6383;50.830;7.210;2022-10-03T09:44:14;29.05;;;6.38;;
12635;SDS011;6383;50.830;7.210;2022-10-03T09:47:02;25.48;;;8.65;;
12635;SDS011;6383;50.830;7.210;2022-10-03T09:50:11;22.58;;;7.57;;
12635;SDS011;6383;50.830;7.210;2022-10-03T09:53:14;21.65;;;5.47;;
12635;SDS011;6383;50.830;7.210;2022-10-03T09:56:11;18.38;;;6.30;;
12635;SDS011;6383;50.830;7.210;2022-10-03T09:59:07;30.15;;;6.55;;
12635;SDS011;6383;50.830;7.210;2022-10-03T10:01:51;18.65;;;5.60;;
12635;SDS011;6383;50.830;7.210;2022-10-03T10:04:44;18.70;;;4.60;;
12635;SDS011;6383;50.830;7.210;2022-10-03T10:07:38;14.23;;;4.03;;
12635;SDS011;6383;50.830;7.210;2022-10-03T10:20:31;15.00;;;4.50;;
12635;SDS011;6383;50.830;7.210;2022-10-03T10:27:08;14.02;;;2.65;;
12635;SDS011;6383;50.830;7.210;2022-10-03T10:30:08;8.55;;;2.53;;
12635;SDS011;6383;50.830;7.210;2022-10-03T10:42:23;35.10;;;4.25;;
12635;SDS011;6383;50.830;7.210;2022-10-03T10:56:12;12.07;;;3.30;;
12635;SDS011;6383;50.830;7.210;2022-10-03T11:15:42;12.88;;;3.25;;
12635;SDS011;6383;50.830;7.210;2022-10-03T11:22:11;15.20;;;5.68;;
12635;SDS011;6383;50.830;7.210;2022-10-03T11:39:39;10.65;;;2.70;;
12635;SDS011;6383;50.830;7.210;2022-10-03T11:42:20;7.70;;;2.85;;
12635;SDS011;6383;50.830;7.210;2022-10-03T11:44:59;17.63;;;3.30;;
12635;SDS011;6383;50.830;7.210;2022-10-03T11:47:44;12.23;;;3.22;;
12635;SDS011;6383;50.830;7.210;2022-10-03T11:50:28;7.60;;;2.58;;
12635;SDS011;6383;50.830;7.210;2022-10-03T11:56:33;11.43;;;2.72;;
12635;SDS011;6383;50.830;7.210;2022-10-03T11:59:30;7.95;;;2.50;;
12635;SDS011;6383;50.830;7.210;2022-10-03T12:02:47;10.00;;;2.78;;
12635;SDS011;6383;50.830;7.210;2022-10-03T12:08:46;10.65;;;2.08;;
12635;SDS011;6383;50.830;7.210;2022-10-03T12:11:24;20.45;;;2.90;;
12635;SDS011;6383;50.830;7.210;2022-10-03T12:17:11;11.27;;;2.65;;
12635;SDS011;6383;50.830;7.210;2022-10-03T12:19:47;11.68;;;2.45;;
12635;SDS011;6383;50.830;7.210;2022-10-03T12:22:31;4.43;;;2.05;;
12635;SDS011;6383;50.830;7.210;2022-10-03T12:25:15;13.40;;;3.55;;
12635;SDS011;6383;50.830;7.210;2022-10-03T12:27:56;8.23;;;2.22;;
12635;SDS011;6383;50.830;7.210;2022-10-03T12:30:36;10.30;;;3.13;;
12635;SDS011;6383;50.830;7.210;2022-10-03T12:36:14;13.68;;;4.68;;
12635;SDS011;6383;50.830;7.210;2022-10-03T12:38:51;6.53;;;2.33;;
12635;SDS011;6383;50.830;7.210;2022-10-03T12:41:38;9.48;;;2.38;;
12635;SDS011;6383;50.830;7.210;2022-10-03T12:44:18;11.05;;;2.78;;
12635;SDS011;6383;50.830;7.210;2022-10-03T12:46:59;14.25;;;2.30;;
12635;SDS011;6383;50.830;7.210;2022-10-03T12:49:43;8.65;;;2.42;;
12635;SDS011;6383;50.830;7.210;2022-10-03T12:52:22;7.70;;;2.17;;
12635;SDS011;6383;50.830;7.210;2022-10-03T12:57:38;10.93;;;2.47;;
12635;SDS011;6383;50.830;7.210;2022-10-03T13:00:18;5.65;;;1.83;;
12635;SDS011;6383;50.830;7.210;2022-10-03T13:02:54;6.30;;;2.20;;
12635;SDS011;6383;50.830;7.210;2022-10-03T13:05:54;9.18;;;2.03;;
12635;SDS011;6383;50.830;7.210;2022-10-03T13:08:44;14.75;;;2.38;;
12635;SDS011;6383;50.830;7.210;2022-10-03T13:11:29;13.93;;;3.47;;
12635;SDS011;6383;50.830;7.210;2022-10-03T13:14:08;14.25;;;2.85;;
12635;SDS011;6383;50.830;7.210;2022-10-03T13:16:58;11.27;;;3.40;;
12635;SDS011;6383;50.830;7.210;2022-10-03T13:19:38;7.68;;;2.47;;
12635;SDS011;6383;50.830;7.210;2022-10-03T13:22:22;9.88;;;2.88;;
12635;SDS011;6383;50.830;7.210;2022-10-03T13:25:00;9.13;;;3.00;;
12635;SDS011;6383;50.830;7.210;2022-10-03T13:27:36;7.43;;;1.98;;
12635;SDS011;6383;50.830;7.210;2022-10-03T13:30:12;7.57;;;2.15;;
12635;SDS011;6383;50.830;7.210;2022-10-03T13:32:49;6.43;;;1.80;;
12635;SDS011;6383;50.830;7.210;2022-10-03T13:35:25;14.05;;;2.05;;
12635;SDS011;6383;50.830;7.210;2022-10-03T13:41:28;5.95;;;1.75;;
12635;SDS011;6383;50.830;7.210;2022-10-03T13:44:13;7.22;;;2.05;;
12635;SDS011;6383;50.830;7.210;2022-10-03T13:46:45;7.38;;;1.63;;
12635;SDS011;6383;50.830;7.210;2022-10-03T13:49:22;6.75;;;1.83;;
12635;SDS011;6383;50.830;7.210;2022-10-03T13:51:58;13.18;;;2.08;;
12635;SDS011;6383;50.830;7.210;2022-10-03T13:54:45;10.73;;;2.38;;
12635;SDS011;6383;50.830;7.210;2022-10-03T13:57:36;9.73;;;2.20;;
12635;SDS011;6383;50.830;7.210;2022-10-03T14:02:46;8.18;;;1.92;;
12635;SDS011;6383;50.830;7.210;2022-10-03T14:05:42;7.97;;;2.60;;
12635;SDS011;6383;50.830;7.210;2022-10-03T14:08:26;9.30;;;2.55;;
12635;SDS011;6383;50.830;7.210;2022-10-03T14:11:16;9.20;;;2.53;;
12635;SDS011;6383;50.830;7.210;2022-10-03T14:16:50;8.98;;;2.55;;
12635;SDS011;6383;50.830;7.210;2022-10-03T14:19:30;7.75;;;2.03;;
12635;SDS011;6383;50.830;7.210;2022-10-03T14:22:08;7.13;;;2.60;;
12635;SDS011;6383;50.830;7.210;2022-10-03T14:27:41;7.22;;;2.00;;
12635;SDS011;6383;50.830;7.210;2022-10-03T14:30:18;13.27;;;2.60;;
12635;SDS011;6383;50.830;7.210;2022-10-03T14:32:57;8.93;;;3.00;;
12635;SDS011;6383;50.830;7.210;2022-10-03T14:35:38;10.27;;;2.85;;
12635;SDS011;6383;50.830;7.210;2022-10-03T14:38:19;5.75;;;1.98;;
12635;SDS011;6383;50.830;7.210;2022-10-03T14:41:17;7.20;;;1.95;;
12635;SDS011;6383;50.830;7.210;2022-10-03T14:43:48;7.13;;;3.03;;
12635;SDS011;6383;50.830;7.210;2022-10-03T14:46:23;5.40;;;1.83;;
12635;SDS011;6383;50.830;7.210;2022-10-03T14:48:57;10.13;;;2.35;;
12635;SDS011;6383;50.830;7.210;2022-10-03T14:51:28;6.10;;;1.63;;
12635;SDS011;6383;50.830;7.210;2022-10-03T14:54:01;7.10;;;2.08;;
12635;SDS011;6383;50.830;7.210;2022-10-03T14:56:40;7.00;;;1.80;;
12635;SDS011;6383;50.830;7.210;2022-10-03T14:59:12;6.88;;;2.00;;
12635;SDS011;6383;50.830;7.210;2022-10-03T15:01:47;10.85;;;2.65;;
12635;SDS011;6383;50.830;7.210;2022-10-03T15:04:23;9.80;;;2.10;;
12635;SDS011;6383;50.830;7.210;2022-10-03T15:06:56;6.43;;;2.55;;
12635;SDS011;6383;50.830;7.210;2022-10-03T15:09:29;8.35;;;3.10;;
12635;SDS011;6383;50.830;7.210;2022-10-03T15:12:09;11.50;;;2.47;;
12635;SDS011;6383;50.830;7.210;2022-10-03T15:14:45;7.13;;;2.10;;
12635;SDS011;6383;50.830;7.210;2022-10-03T15:17:18;9.00;;;1.88;;
12635;SDS011;6383;50.830;7.210;2022-10-03T15:19:54;7.45;;;1.90;;
12635;SDS011;6383;50.830;7.210;2022-10-03T15:22:27;4.47;;;2.03;;
12635;SDS011;6383;50.830;7.210;2022-10-03T15:25:00;9.18;;;2.58;;
12635;SDS011;6383;50.830;7.210;2022-10-03T15:27:34;5.82;;;1.92;;
12635;SDS011;6383;50.830;7.210;2022-10-03T15:30:16;11.13;;;2.22;;
12635;SDS011;6383;50.830;7.210;2022-10-03T15:32:48;6.32;;;1.73;;
12635;SDS011;6383;50.830;7.210;2022-10-03T15:35:20;5.50;;;1.88;;
12635;SDS011;6383;50.830;7.210;2022-10-03T15:37:54;6.72;;;1.92;;
12635;SDS011;6383;50.830;7.210;2022-10-03T15:40:35;7.72;;;2.40;;
12635;SDS011;6383;50.830;7.210;2022-10-03T15:43:23;5.85;;;2.03;;
12635;SDS011;6383;50.830;7.210;2022-10-03T15:45:58;11.15;;;2.47;;
12635;SDS011;6383;50.830;7.210;2022-10-03T15:48:30;8.70;;;2.42;;
12635;SDS011;6383;50.830;7.210;2022-10-03T15:51:01;18.05;;;5.03;;
12635;SDS011;6383;50.830;7.210;2022-10-03T15:53:33;15.88;;;8.10;;
12635;SDS011;6383;50.830;7.210;2022-10-03T15:56:07;19.33;;;6.97;;
12635;SDS011;6383;50.830;7.210;2022-10-03T15:58:42;13.63;;;6.32;;
12635;SDS011;6383;50.830;7.210;2022-10-03T16:01:17;7.97;;;3.85;;
12635;SDS011;6383;50.830;7.210;2022-10-03T16:03:50;5.22;;;3.70;;
12635;SDS011;6383;50.830;7.210;2022-10-03T16:06:23;7.68;;;2.67;;
12635;SDS011;6383;50.830;7.210;2022-10-03T16:08:58;8.70;;;2.40;;
12635;SDS011;6383;50.830;7.210;2022-10-03T16:11:36;9.80;;;2.88;;
12635;SDS011;6383;50.830;7.210;2022-10-03T16:14:16;8.50;;;2.95;;
12635;SDS011;6383;50.830;7.210;2022-10-03T16:16:50;8.60;;;4.25;;
12635;SDS011;6383;50.830;7.210;2022-10-03T16:19:24;4.65;;;2.15;;
12635;SDS011;6383;50.830;7.210;2022-10-03T16:22:06;10.82;;;2.72;;
12635;SDS011;6383;50.830;7.210;2022-10-03T16:24:42;9.23;;;2.40;;
12635;SDS011;6383;50.830;7.210;2022-10-03T16:27:26;7.85;;;2.28;;
12635;SDS011;6383;50.830;7.210;2022-10-03T16:30:09;8.02;;;3.10;;
12635;SDS011;6383;50.830;7.210;2022-10-03T16:32:47;7.35;;;2.05;;
12635;SDS011;6383;50.830;7.210;2022-10-03T16:35:28;8.82;;;2.25;;
12635;SDS011;6383;50.830;7.210;2022-10-03T16:38:02;12.50;;;4.93;;
12635;SDS011;6383;50.830;7.210;2022-10-03T16:40:35;13.57;;;5.53;;
12635;SDS011;6383;50.830;7.210;2022-10-03T16:43:05;10.18;;;4.00;;
12635;SDS011;6383;50.830;7.210;2022-10-03T16:45:39;9.85;;;3.42;;
12635;SDS011;6383;50.830;7.210;2022-10-03T16:48:13;9.00;;;2.47;;
12635;SDS011;6383;50.830;7.210;2022-10-03T16:51:07;10.65;;;3.47;;
12635;SDS011;6383;50.830;7.210;2022-10-03T16:53:46;10.25;;;4.72;;
12635;SDS011;6383;50.830;7.210;2022-10-03T16:56:19;9.23;;;3.63;;
12635;SDS011;6383;50.830;7.210;2022-10-03T16:58:53;12.00;;;4.13;;
12635;SDS011;6383;50.830;7.210;2022-10-03T17:01:29;8.05;;;3.42;;
12635;SDS011;6383;50.830;7.210;2022-10-03T17:04:06;12.57;;;5.70;;
12635;SDS011;6383;50.830;7.210;2022-10-03T17:06:44;16.15;;;6.18;;
12635;SDS011;6383;50.830;7.210;2022-10-03T17:09:18;16.30;;;8.93;;
12635;SDS011;6383;50.830;7.210;2022-10-03T17:11:52;14.60;;;9.88;;
12635;SDS011;6383;50.830;7.210;2022-10-03T17:14:24;18.95;;;9.65;;
12635;SDS011;6383;50.830;7.210;2022-10-03T17:17:02;11.30;;;7.20;;
12635;SDS011;6383;50.830;7.210;2022-10-03T17:19:35;16.40;;;8.83;;
12635;SDS011;6383;50.830;7.210;2022-10-03T17:22:12;15.27;;;7.63;;
12635;SDS011;6383;50.830;7.210;2022-10-03T17:24:46;14.20;;;7.40;;
12635;SDS011;6383;50.830;7.210;2022-10-03T17:27:21;19.48;;;7.32;;
12635;SDS011;6383;50.830;7.210;2022-10-03T17:29:56;7.47;;;4.95;;
12635;SDS011;6383;50.830;7.210;2022-10-03T17:32:32;11.05;;;5.05;;
12635;SDS011;6383;50.830;7.210;2022-10-03T17:35:06;16.55;;;4.95;;
12635;SDS011;6383;50.830;7.210;2022-10-03T17:40:47;11.65;;;5.03;;
12635;SDS011;6383;50.830;7.210;2022-10-03T17:43:21;13.60;;;4.68;;
12635;SDS011;6383;50.830;7.210;2022-10-03T17:46:03;7.53;;;3.90;;
12635;SDS011;6383;50.830;7.210;2022-10-03T17:48:40;11.65;;;3.70;;
12635;SDS011;6383;50.830;7.210;2022-10-03T17:51:30;8.93;;;3.60;;
12635;SDS011;6383;50.830;7.210;2022-10-03T17:54:04;9.02;;;5.18;;
12635;SDS011;6383;50.830;7.210;2022-10-03T17:56:42;15.52;;;5.07;;
12635;SDS011;6383;50.830;7.210;2022-10-03T17:59:13;8.75;;;5.40;;
12635;SDS011;6383;50.830;7.210;2022-10-03T18:01:48;13.90;;;4.63;;
12635;SDS011;6383;50.830;7.210;2022-10-03T18:04:25;10.52;;;5.03;;
12635;SDS011;6383;50.830;7.210;2022-10-03T18:07:00;14.57;;;5.32;;
12635;SDS011;6383;50.830;7.210;2022-10-03T18:09:35;7.63;;;4.60;;
12635;SDS011;6383;50.830;7.210;2022-10-03T18:12:16;9.50;;;4.20;;
12635;SDS011;6383;50.830;7.210;2022-10-03T18:14:55;10.05;;;5.15;;
12635;SDS011;6383;50.830;7.210;2022-10-03T18:17:47;15.35;;;4.93;;
12635;SDS011;6383;50.830;7.210;2022-10-03T18:20:31;10.15;;;3.95;;
12635;SDS011;6383;50.830;7.210;2022-10-03T18:23:11;12.23;;;5.80;;
12635;SDS011;6383;50.830;7.210;2022-10-03T18:25:51;10.88;;;6.72;;
12635;SDS011;6383;50.830;7.210;2022-10-03T18:28:30;12.10;;;7.35;;
12635;SDS011;6383;50.830;7.210;2022-10-03T18:31:01;14.95;;;6.72;;
12635;SDS011;6383;50.830;7.210;2022-10-03T18:33:35;17.38;;;7.43;;
12635;SDS011;6383;50.830;7.210;2022-10-03T18:36:14;15.35;;;6.88;;
12635;SDS011;6383;50.830;7.210;2022-10-03T18:38:47;12.50;;;6.03;;
12635;SDS011;6383;50.830;7.210;2022-10-03T18:41:19;16.77;;;6.45;;
12635;SDS011;6383;50.830;7.210;2022-10-03T18:43:51;14.25;;;7.28;;
12635;SDS011;6383;50.830;7.210;2022-10-03T18:46:27;11.57;;;6.25;;
12635;SDS011;6383;50.830;7.210;2022-10-03T18:51:34;14.65;;;7.32;;
12635;SDS011;6383;50.830;7.210;2022-10-03T18:54:08;10.38;;;6.05;;
12635;SDS011;6383;50.830;7.210;2022-10-03T18:56:58;11.43;;;5.25;;
12635;SDS011;6383;50.830;7.210;2022-10-03T18:59:34;9.95;;;4.75;;
12635;SDS011;6383;50.830;7.210;2022-10-03T19:02:14;9.77;;;4.00;;
12635;SDS011;6383;50.830;7.210;2022-10-03T19:04:50;13.55;;;4.40;;
12635;SDS011;6383;50.830;7.210;2022-10-03T19:07:23;8.40;;;3.78;;
12635;SDS011;6383;50.830;7.210;2022-10-03T19:13:00;9.73;;;3.93;;
12635;SDS011;6383;50.830;7.210;2022-10-03T19:15:40;11.73;;;3.70;;
12635;SDS011;6383;50.830;7.210;2022-10-03T19:18:30;16.15;;;4.00;;
12635;SDS011;6383;50.830;7.210;2022-10-03T19:21:11;16.02;;;5.72;;
12635;SDS011;6383;50.830;7.210;2022-10-03T19:23:47;7.95;;;5.50;;
12635;SDS011;6383;50.830;7.210;2022-10-03T19:26:22;10.88;;;5.40;;
12635;SDS011;6383;50.830;7.210;2022-10-03T19:28:57;10.82;;;6.32;;
12635;SDS011;6383;50.830;7.210;2022-10-03T19:31:34;12.85;;;5.82;;
12635;SDS011;6383;50.830;7.210;2022-10-03T19:34:10;10.00;;;6.05;;
12635;SDS011;6383;50.830;7.210;2022-10-03T19:36:47;13.75;;;6.47;;
12635;SDS011;6383;50.830;7.210;2022-10-03T19:39:19;9.00;;;5.47;;
12635;SDS011;6383;50.830;7.210;2022-10-03T19:41:50;15.63;;;6.88;;
12635;SDS011;6383;50.830;7.210;2022-10-03T19:44:23;12.02;;;4.95;;
12635;SDS011;6383;50.830;7.210;2022-10-03T19:47:00;8.98;;;5.05;;
12635;SDS011;6383;50.830;7.210;2022-10-03T19:49:35;14.07;;;5.57;;
12635;SDS011;6383;50.830;7.210;2022-10-03T19:52:15;19.80;;;8.15;;
12635;SDS011;6383;50.830;7.210;2022-10-03T19:54:50;11.43;;;6.68;;
12635;SDS011;6383;50.830;7.210;2022-10-03T19:57:24;13.73;;;7.13;;
12635;SDS011;6383;50.830;7.210;2022-10-03T19:59:58;19.50;;;12.38;;
12635;SDS011;6383;50.830;7.210;2022-10-03T20:02:30;25.92;;;12.32;;
12635;SDS011;6383;50.830;7.210;2022-10-03T20:04:59;18.70;;;11.95;;
12635;SDS011;6383;50.830;7.210;2022-10-03T20:07:32;13.60;;;7.20;;
12635;SDS011;6383;50.830;7.210;2022-10-03T20:10:28;16.13;;;7.45;;
12635;SDS011;6383;50.830;7.210;2022-10-03T20:13:13;12.63;;;6.07;;
12635;SDS011;6383;50.830;7.210;2022-10-03T20:15:43;8.50;;;3.78;;
12635;SDS011;6383;50.830;7.210;2022-10-03T20:18:21;11.68;;;4.47;;
12635;SDS011;6383;50.830;7.210;2022-10-03T20:20:53;14.80;;;4.30;;
12635;SDS011;6383;50.830;7.210;2022-10-03T20:23:24;11.02;;;4.10;;
12635;SDS011;6383;50.830;7.210;2022-10-03T20:25:57;18.40;;;4.13;;
12635;SDS011;6383;50.830;7.210;2022-10-03T20:28:43;10.63;;;3.92;;
12635;SDS011;6383;50.830;7.210;2022-10-03T20:31:26;21.75;;;4.63;;
12635;SDS011;6383;50.830;7.210;2022-10-03T20:33:59;11.27;;;4.32;;